Lubov IVanova — UXEL — position and weather

sailwx.info

Track history (hours):
 
Tides and Currents Weather Stations Pressure Air Temp Water Temp Dewpoint Dewpoint Depression Visibility Wind Speed Wind Dir Waves Ship Positions

Lubov IVanova

Last reported at 2017-Oct-18 17:33 UTC. Time now 2017-Oct-19 16:28 UTC.
Position N 46°59' E 031°60'.

Length 17 m.

Type: Passenger vessel. MMSI: 272160100.

Date/timePositionNaut miles runAvg speedWind from/ knotsBaromVisibWave heightAir tempDewpointWater temp
2017-Oct-18 17:33N 46°59' E 031°60'0 0.6
2017-Oct-18 17:30N 46°59' E 031°60'2 3.1
2017-Oct-18 17:00N 46°59' E 031°57'2 3.1
2017-Oct-18 16:29N 46°59' E 031°60'1 2.2
2017-Oct-18 16:00N 46°59' E 031°58'0 0.4
2017-Oct-18 15:30N 46°59' E 031°58'1 0.0
2017-Oct-17 16:41N 46°59' E 031°60'0 0.0
2017-Oct-17 16:30N 46°59' E 031°60'2 4.5
2017-Oct-17 16:00N 46°58' E 031°56'2 4.0
2017-Oct-17 15:30N 46°59' E 031°59'0 0.7
2017-Oct-17 14:58N 46°59' E 031°60'1 2.0
2017-Oct-17 14:30N 46°59' E 031°59'1 2.0
2017-Oct-17 14:00N 46°59' E 031°57'2 2.9
2017-Oct-17 13:29N 46°59' E 031°60'0 0.0
2017-Oct-17 12:56N 46°59' E 031°60'2 3.9
2017-Oct-17 12:30N 46°59' E 031°57'1 2.6
2017-Oct-17 12:00N 46°59' E 031°59'0 0.0
2017-Oct-16 16:35N 46°59' E 031°60'0 0.1
2017-Oct-16 16:29N 46°59' E 031°60'0 0.8
2017-Oct-16 16:00N 46°59' E 031°59'1 2.3
2017-Oct-16 15:30N 46°59' E 031°58'1 2.8
2017-Oct-16 14:59N 46°59' E 031°60'2 1.7
2017-Oct-16 14:00N 46°58' E 031°57'2 3.3
2017-Oct-16 13:29N 46°59' E 031°60'0 0.8
2017-Oct-16 13:00N 46°59' E 031°59'1 2.9
2017-Oct-16 12:30N 46°58' E 031°57'2 3.3
2017-Oct-16 11:58N 46°59' E 031°60'0 0.2
2017-Oct-16 11:30N 46°59' E 031°60'2 3.8
2017-Oct-16 11:00N 46°59' E 031°57'2 3.6
2017-Oct-16 10:28N 46°59' E 031°60'0 0.0
2017-Oct-15 18:05N 46°59' E 031°60'0 1.1
2017-Oct-15 18:00N 46°59' E 031°60'1 2.3
2017-Oct-15 17:30N 46°59' E 031°58'1 2.4
2017-Oct-15 17:00N 46°59' E 031°60'2 3.6
2017-Oct-15 16:30N 46°59' E 031°57'2 3.4
2017-Oct-15 15:59N 46°59' E 031°60'1 1.8
2017-Oct-15 15:30N 46°59' E 031°59'0 0.8
2017-Oct-15 15:00N 46°59' E 031°58'0 0.1
2017-Oct-15 14:00N 46°59' E 031°58'0 0.2
2017-Oct-15 13:30N 46°59' E 031°58'1 2.0
2017-Oct-15 13:00N 46°59' E 031°60'0 0.0
2017-Oct-15 12:30N 46°59' E 031°60'2 4.3
2017-Oct-15 12:00N 46°58' E 031°57'2 4.4
2017-Oct-15 11:30N 46°59' E 031°60'1 1.9
2017-Oct-15 11:00N 46°59' E 031°58'1 1.0
2017-Oct-15 10:30N 46°59' E 031°58'1 0.1
2017-Oct-14 15:48N 46°59' E 031°60'0 0.0
2017-Oct-14 15:30N 46°59' E 031°60'2 3.6
2017-Oct-14 15:00N 46°59' E 031°57'2 3.5
2017-Oct-14 14:29N 46°59' E 031°60'0 0.0
2017-Oct-14 13:59N 46°59' E 031°60'1 2.2
2017-Oct-14 13:30N 46°59' E 031°58'1 0.5
2017-Oct-14 11:23N 46°59' E 031°60'0 0.0
2017-Oct-14 10:59N 46°59' E 031°60'2 3.6
2017-Oct-14 10:30N 46°59' E 031°57'2 0.1
2017-Oct-13 15:41N 46°59' E 031°60'0 0.0
2017-Oct-13 15:29N 46°59' E 031°60'0 0.0
2017-Oct-13 14:59N 46°59' E 031°60'0 0.0
2017-Oct-13 14:29N 46°59' E 031°60'0 0.0
2017-Oct-13 13:59N 46°59' E 031°60'1 1.9
2017-Oct-13 13:30N 46°59' E 031°59'0 0.4
2017-Oct-13 13:00N 46°59' E 031°58'1 1.8
2017-Oct-13 12:27N 46°59' E 031°60'0 0.0
2017-Oct-13 11:57N 46°59' E 031°60'0 0.0
2017-Oct-13 11:30N 46°59' E 031°60'0 1.0
2017-Oct-13 11:01N 46°59' E 031°59'1 1.6
2017-Oct-13 10:31N 46°59' E 031°58'1 2.2
2017-Oct-13 09:58N 46°59' E 031°60'1 2.6
2017-Oct-13 09:29N 46°59' E 031°58'1 2.5
2017-Oct-13 09:00N 46°59' E 031°60'0 0.0
2017-Oct-12 16:18N 46°59' E 031°60'0 0.0
2017-Oct-12 16:00N 46°59' E 031°60'1 2.9
2017-Oct-12 15:30N 46°59' E 031°58'1 1.4
2017-Oct-12 15:00N 46°59' E 031°58'1 1.6
2017-Oct-12 14:22N 46°59' E 031°60'1 2.5
2017-Oct-12 14:00N 46°59' E 031°59'1 1.9
2017-Oct-12 13:30N 46°59' E 031°57'1 3.0
2017-Oct-12 12:59N 46°59' E 031°60'  
2017-Oct-09 18:10N 46°59' E 031°60'0 2.2
2017-Oct-09 18:00N 46°59' E 031°59'2 3.9
2017-Oct-09 17:30N 46°58' E 031°56'2 4.2
2017-Oct-09 16:58N 46°59' E 031°60'0 0.0
2017-Oct-09 16:28N 46°59' E 031°60'0 0.0
2017-Oct-09 15:58N 46°59' E 031°60'0 0.0
2017-Oct-09 15:28N 46°59' E 031°60'0 0.0
2017-Oct-09 14:58N 46°59' E 031°60'0 0.0
2017-Oct-09 14:28N 46°59' E 031°60'0 0.0
2017-Oct-09 13:58N 46°59' E 031°60'0 0.0
2017-Oct-09 13:28N 46°59' E 031°60'0 0.0
2017-Oct-09 12:58N 46°59' E 031°60'0 0.0
2017-Oct-09 12:25N 46°59' E 031°60'0 0.0
2017-Oct-09 11:58N 46°59' E 031°60'0 0.0
2017-Oct-09 11:28N 46°59' E 031°60'2 3.5
2017-Oct-09 11:00N 46°59' E 031°57'1 2.3
2017-Oct-09 10:30N 46°59' E 031°59'  
Track history (hours):
 
Tides and Currents Weather Stations Pressure Air Temp Water Temp Dewpoint Dewpoint Depression Visibility Wind Speed Wind Dir Waves Ship Positions

Lubov IVanova

Last reported at 2017-Oct-18 17:33 UTC. Time now 2017-Oct-19 16:28 UTC.
Position N 46°59' E 031°60'.

Length 17 m.

Type: Passenger vessel. MMSI: 272160100.

Date/timePositionNaut miles runAvg speedWind from/ knotsBaromVisibWave heightAir tempDewpointWater temp
2017-Oct-18 17:33N 46°59' E 031°60'0 0.6
2017-Oct-18 17:30N 46°59' E 031°60'2 3.1
2017-Oct-18 17:00N 46°59' E 031°57'2 3.1
2017-Oct-18 16:29N 46°59' E 031°60'1 2.2
2017-Oct-18 16:00N 46°59' E 031°58'0 0.4
2017-Oct-18 15:30N 46°59' E 031°58'1 0.0
2017-Oct-17 16:41N 46°59' E 031°60'0 0.0
2017-Oct-17 16:30N 46°59' E 031°60'2 4.5
2017-Oct-17 16:00N 46°58' E 031°56'2 4.0
2017-Oct-17 15:30N 46°59' E 031°59'0 0.7
2017-Oct-17 14:58N 46°59' E 031°60'1 2.0
2017-Oct-17 14:30N 46°59' E 031°59'1 2.0
2017-Oct-17 14:00N 46°59' E 031°57'2 2.9
2017-Oct-17 13:29N 46°59' E 031°60'0 0.0
2017-Oct-17 12:56N 46°59' E 031°60'2 3.9
2017-Oct-17 12:30N 46°59' E 031°57'1 2.6
2017-Oct-17 12:00N 46°59' E 031°59'0 0.0
2017-Oct-16 16:35N 46°59' E 031°60'0 0.1
2017-Oct-16 16:29N 46°59' E 031°60'0 0.8
2017-Oct-16 16:00N 46°59' E 031°59'1 2.3
2017-Oct-16 15:30N 46°59' E 031°58'1 2.8
2017-Oct-16 14:59N 46°59' E 031°60'2 1.7
2017-Oct-16 14:00N 46°58' E 031°57'2 3.3
2017-Oct-16 13:29N 46°59' E 031°60'0 0.8
2017-Oct-16 13:00N 46°59' E 031°59'1 2.9
2017-Oct-16 12:30N 46°58' E 031°57'2 3.3
2017-Oct-16 11:58N 46°59' E 031°60'0 0.2
2017-Oct-16 11:30N 46°59' E 031°60'2 3.8
2017-Oct-16 11:00N 46°59' E 031°57'2 3.6
2017-Oct-16 10:28N 46°59' E 031°60'0 0.0
2017-Oct-15 18:05N 46°59' E 031°60'0 1.1
2017-Oct-15 18:00N 46°59' E 031°60'1 2.3
2017-Oct-15 17:30N 46°59' E 031°58'1 2.4
2017-Oct-15 17:00N 46°59' E 031°60'2 3.6
2017-Oct-15 16:30N 46°59' E 031°57'2 3.4
2017-Oct-15 15:59N 46°59' E 031°60'1 1.8
2017-Oct-15 15:30N 46°59' E 031°59'0 0.8
2017-Oct-15 15:00N 46°59' E 031°58'0 0.1
2017-Oct-15 14:00N 46°59' E 031°58'0 0.2
2017-Oct-15 13:30N 46°59' E 031°58'1 2.0
2017-Oct-15 13:00N 46°59' E 031°60'0 0.0
2017-Oct-15 12:30N 46°59' E 031°60'2 4.3
2017-Oct-15 12:00N 46°58' E 031°57'2 4.4
2017-Oct-15 11:30N 46°59' E 031°60'1 1.9
2017-Oct-15 11:00N 46°59' E 031°58'1 1.0
2017-Oct-15 10:30N 46°59' E 031°58'1 0.1
2017-Oct-14 15:48N 46°59' E 031°60'0 0.0
2017-Oct-14 15:30N 46°59' E 031°60'2 3.6
2017-Oct-14 15:00N 46°59' E 031°57'2 3.5
2017-Oct-14 14:29N 46°59' E 031°60'0 0.0
2017-Oct-14 13:59N 46°59' E 031°60'1 2.2
2017-Oct-14 13:30N 46°59' E 031°58'1 0.5
2017-Oct-14 11:23N 46°59' E 031°60'0 0.0
2017-Oct-14 10:59N 46°59' E 031°60'2 3.6
2017-Oct-14 10:30N 46°59' E 031°57'2 0.1
2017-Oct-13 15:41N 46°59' E 031°60'0 0.0
2017-Oct-13 15:29N 46°59' E 031°60'0 0.0
2017-Oct-13 14:59N 46°59' E 031°60'0 0.0
2017-Oct-13 14:29N 46°59' E 031°60'0 0.0
2017-Oct-13 13:59N 46°59' E 031°60'1 1.9
2017-Oct-13 13:30N 46°59' E 031°59'0 0.4
2017-Oct-13 13:00N 46°59' E 031°58'1 1.8
2017-Oct-13 12:27N 46°59' E 031°60'0 0.0
2017-Oct-13 11:57N 46°59' E 031°60'0 0.0
2017-Oct-13 11:30N 46°59' E 031°60'0 1.0
2017-Oct-13 11:01N 46°59' E 031°59'1 1.6
2017-Oct-13 10:31N 46°59' E 031°58'1 2.2
2017-Oct-13 09:58N 46°59' E 031°60'1 2.6
2017-Oct-13 09:29N 46°59' E 031°58'1 2.5
2017-Oct-13 09:00N 46°59' E 031°60'0 0.0
2017-Oct-12 16:18N 46°59' E 031°60'0 0.0
2017-Oct-12 16:00N 46°59' E 031°60'1 2.9
2017-Oct-12 15:30N 46°59' E 031°58'1 1.4
2017-Oct-12 15:00N 46°59' E 031°58'1 1.6
2017-Oct-12 14:22N 46°59' E 031°60'1 2.5
2017-Oct-12 14:00N 46°59' E 031°59'1 1.9
2017-Oct-12 13:30N 46°59' E 031°57'1 3.0
2017-Oct-12 12:59N 46°59' E 031°60'  
2017-Oct-09 18:10N 46°59' E 031°60'0 2.2
2017-Oct-09 18:00N 46°59' E 031°59'2 3.9
2017-Oct-09 17:30N 46°58' E 031°56'2 4.2
2017-Oct-09 16:58N 46°59' E 031°60'0 0.0
2017-Oct-09 16:28N 46°59' E 031°60'0 0.0
2017-Oct-09 15:58N 46°59' E 031°60'0 0.0
2017-Oct-09 15:28N 46°59' E 031°60'0 0.0
2017-Oct-09 14:58N 46°59' E 031°60'0 0.0
2017-Oct-09 14:28N 46°59' E 031°60'0 0.0
2017-Oct-09 13:58N 46°59' E 031°60'0 0.0
2017-Oct-09 13:28N 46°59' E 031°60'0 0.0
2017-Oct-09 12:58N 46°59' E 031°60'0 0.0
2017-Oct-09 12:25N 46°59' E 031°60'0 0.0
2017-Oct-09 11:58N 46°59' E 031°60'0 0.0
2017-Oct-09 11:28N 46°59' E 031°60'2 3.5
2017-Oct-09 11:00N 46°59' E 031°57'1 2.3
2017-Oct-09 10:30N 46°59' E 031°59'  

Dump ship's entire track history